Time;durP1;ratioP1;P1;durP2;ratioP2;P2;SDS_P1;SDS_P2;PMS_P1;PMS_P2;Temp;Humidity;BMP_temperature;BMP_pressure;BME280_temperature;BME280_humidity;BME280_pressure;Samples;Min_cycle;Max_cycle;Signal;HPM_P1;HPM_P2
2023/06/18 00:01:02;;;;;;;0.25;0.10;;;16.10;99.90;;;;;;5005564;28;20038;-70
2023/06/18 00:03:28;;;;;;;0.45;0.10;;;16.10;99.90;;;;;;5007815;28;20101;-70
2023/06/18 00:05:54;;;;;;;0.35;0.17;;;16.10;99.90;;;;;;5006126;28;20038;-70
2023/06/18 00:08:20;;;;;;;4.03;0.82;;;16.00;99.90;;;;;;5000676;28;20129;-70
2023/06/18 00:10:46;;;;;;;0.10;0.10;;;16.00;99.90;;;;;;5006850;28;20045;-70
2023/06/18 00:13:12;;;;;;;0.73;0.55;;;16.00;99.90;;;;;;5009582;28;20056;-70
2023/06/18 00:15:38;;;;;;;0.20;0.20;;;16.00;99.90;;;;;;5003902;28;20109;-70
2023/06/18 00:18:03;;;;;;;0.77;0.65;;;16.00;99.90;;;;;;5006262;28;20042;-70
2023/06/18 00:20:29;;;;;;;0.73;0.63;;;15.90;99.90;;;;;;5005117;28;20112;-69
2023/06/18 00:22:55;;;;;;;0.85;0.75;;;15.80;99.90;;;;;;5006915;28;20067;-69
2023/06/18 00:25:21;;;;;;;0.52;0.43;;;15.80;99.90;;;;;;5004471;28;20072;-69
2023/06/18 00:27:47;;;;;;;0.30;0.30;;;15.80;99.90;;;;;;5006853;28;20042;-69
2023/06/18 00:30:14;;;;;;;0.60;0.55;;;15.70;99.90;;;;;;5006510;28;20050;-69
2023/06/18 00:32:43;;;;;;;1.65;0.63;;;15.60;99.90;;;;;;5006612;28;20052;-69
2023/06/18 00:35:14;;;;;;;1.00;0.80;;;15.50;99.90;;;;;;5002309;28;20053;-70
2023/06/18 00:37:43;;;;;;;1.05;0.85;;;15.50;99.90;;;;;;5011481;28;20513;-69
2023/06/18 00:40:13;;;;;;;0.75;0.63;;;15.50;99.90;;;;;;4994897;28;20486;-69
2023/06/18 00:42:39;;;;;;;0.88;0.85;;;15.40;99.90;;;;;;5010117;28;20116;-69
2023/06/18 00:45:08;;;;;;;0.15;0.15;;;15.40;99.90;;;;;;5009672;28;20050;-69
2023/06/18 00:47:42;;;;;;;0.93;0.85;;;15.40;99.90;;;;;;5008190;28;20080;-69
2023/06/18 00:50:08;;;;;;;1.80;0.75;;;15.30;99.90;;;;;;5011116;28;20045;-70
2023/06/18 00:52:36;;;;;;;0.95;0.80;;;15.30;99.90;;;;;;5011102;28;20044;-69
2023/06/18 00:55:03;;;;;;;0.65;0.65;;;15.30;99.90;;;;;;5011347;28;20049;-69
2023/06/18 00:57:31;;;;;;;0.40;0.38;;;15.20;99.90;;;;;;5009389;28;20043;-69
2023/06/18 00:59:57;;;;;;;0.50;0.50;;;15.20;99.90;;;;;;5010182;28;20081;-69
2023/06/18 01:02:25;;;;;;;1.58;1.48;;;15.20;99.90;;;;;;5009277;28;20082;-68
2023/06/18 01:04:56;;;;;;;1.17;0.65;;;15.20;99.90;;;;;;5009877;28;20053;-69
2023/06/18 01:07:22;;;;;;;0.82;0.82;;;15.10;99.90;;;;;;5007443;28;20053;-69
2023/06/18 01:09:53;;;;;;;1.30;0.88;;;15.10;99.90;;;;;;5009785;28;20678;-69
2023/06/18 01:12:27;;;;;;;1.20;0.98;;;15.00;99.90;;;;;;5011863;28;20049;-69
2023/06/18 01:14:54;;;;;;;1.33;1.23;;;15.00;99.90;;;;;;5010075;28;20117;-69
2023/06/18 01:17:21;;;;;;;2.05;1.10;;;14.90;99.90;;;;;;5009713;28;20109;-70
2023/06/18 01:19:58;;;;;;;1.52;1.05;;;14.90;99.90;;;;;;5006964;28;20039;-69
2023/06/18 01:22:41;;;;;;;1.45;0.88;;;14.90;99.90;;;;;;5007531;28;20038;-69
2023/06/18 01:25:08;;;;;;;0.88;0.68;;;14.80;99.90;;;;;;5008036;28;20571;-69
2023/06/18 01:27:40;;;;;;;0.93;0.85;;;14.80;99.90;;;;;;5024672;28;20046;-70
2023/06/18 01:30:07;;;;;;;0.40;0.40;;;14.70;99.90;;;;;;5006220;28;20573;-69
2023/06/18 01:32:33;;;;;;;1.83;1.40;;;14.70;99.90;;;;;;5010747;28;20524;-69
2023/06/18 01:34:59;;;;;;;1.55;1.08;;;14.60;99.90;;;;;;5009420;28;20085;-69
2023/06/18 01:37:48;;;;;;;1.77;1.65;;;14.60;99.90;;;;;;5010614;28;20366;-70
2023/06/18 01:40:26;;;;;;;1.40;0.93;;;14.60;99.90;;;;;;4999831;28;20050;-70
2023/06/18 01:43:13;;;;;;;0.38;0.38;;;14.60;99.90;;;;;;5010853;28;20136;-69
2023/06/18 01:46:10;;;;;;;1.08;0.88;;;14.60;99.90;;;;;;5006382;28;20045;-69
2023/06/18 01:48:51;;;;;;;1.42;1.30;;;14.60;99.90;;;;;;4990292;28;20196;-70
2023/06/18 01:51:19;;;;;;;1.45;1.05;;;14.50;99.90;;;;;;5008165;28;20046;-69
2023/06/18 01:53:48;;;;;;;0.93;0.85;;;14.50;99.90;;;;;;5010202;28;20169;-69
2023/06/18 01:56:14;;;;;;;1.88;1.02;;;14.50;99.90;;;;;;5006381;28;20054;-69
2023/06/18 01:58:44;;;;;;;0.88;0.60;;;14.50;99.90;;;;;;5010510;28;20049;-69
2023/06/18 02:01:11;;;;;;;0.52;0.52;;;14.50;99.90;;;;;;5009489;28;20038;-69
2023/06/18 02:03:39;;;;;;;0.63;0.63;;;14.50;99.90;;;;;;5008479;28;20049;-69
2023/06/18 02:06:05;;;;;;;0.28;0.28;;;14.40;99.90;;;;;;5008596;28;20088;-70
2023/06/18 02:08:31;;;;;;;0.47;0.38;;;14.40;99.90;;;;;;5010318;28;20049;-69
2023/06/18 02:10:57;;;;;;;0.20;0.20;;;14.40;99.90;;;;;;5005820;28;20089;-69
2023/06/18 02:13:23;;;;;;;0.52;0.13;;;14.40;99.90;;;;;;5008700;28;20431;-69
2023/06/18 02:15:48;;;;;;;0.00;0.00;;;14.40;99.90;;;;;;5007423;28;20053;-69
2023/06/18 02:18:14;;;;;;;0.20;0.20;;;14.40;99.90;;;;;;5007350;28;20037;-69
2023/06/18 02:20:41;;;;;;;0.10;0.10;;;14.40;99.90;;;;;;5004529;28;20037;-69
2023/06/18 02:23:07;;;;;;;0.10;0.10;;;14.40;99.90;;;;;;4993684;28;20033;-69
2023/06/18 02:25:34;;;;;;;0.30;0.30;;;14.40;99.90;;;;;;5005699;28;20160;-69
2023/06/18 02:28:00;;;;;;;0.20;0.20;;;14.40;99.90;;;;;;5009339;28;20045;-69
2023/06/18 02:30:29;;;;;;;1.30;0.93;;;14.40;99.90;;;;;;5006546;28;20041;-69
2023/06/18 02:33:01;;;;;;;0.10;0.10;;;14.40;99.90;;;;;;5008886;28;20152;-69
2023/06/18 02:35:28;;;;;;;0.35;0.30;;;14.40;99.90;;;;;;5004942;28;20117;-69
2023/06/18 02:37:55;;;;;;;0.47;0.10;;;14.30;99.90;;;;;;5009861;28;20034;-69
2023/06/18 02:40:21;;;;;;;0.10;0.00;;;14.30;99.90;;;;;;5005637;28;20069;-69
2023/06/18 02:42:47;;;;;;;0.47;0.47;;;14.30;99.90;;;;;;5008606;28;20108;-69
2023/06/18 02:45:19;;;;;;;0.77;0.73;;;14.30;99.90;;;;;;5007834;28;20065;-69
2023/06/18 02:47:45;;;;;;;0.75;0.65;;;14.40;99.90;;;;;;5008884;28;20038;-69
2023/06/18 02:50:12;;;;;;;2.95;0.32;;;14.30;99.90;;;;;;5004328;28;20113;-69
2023/06/18 02:52:42;;;;;;;0.68;0.22;;;14.30;99.90;;;;;;5008088;28;20128;-70
2023/06/18 02:55:09;;;;;;;0.65;0.32;;;14.30;99.90;;;;;;4990820;28;20099;-70
2023/06/18 02:57:36;;;;;;;0.35;0.10;;;14.30;99.90;;;;;;5010786;28;20105;-69
2023/06/18 03:00:09;;;;;;;0.10;0.10;;;14.30;99.90;;;;;;4998238;28;20077;-70
2023/06/18 03:02:35;;;;;;;0.38;0.30;;;14.30;99.90;;;;;;5010576;28;20054;-69
2023/06/18 03:05:01;;;;;;;1.08;0.47;;;14.20;99.90;;;;;;5008676;28;20414;-70
2023/06/18 03:07:27;;;;;;;0.10;0.10;;;14.20;99.90;;;;;;5011787;28;20452;-70
2023/06/18 03:09:53;;;;;;;1.17;0.52;;;14.20;99.90;;;;;;4995552;28;20038;-70
2023/06/18 03:12:19;;;;;;;0.90;0.63;;;14.20;99.90;;;;;;5006689;28;20048;-70
2023/06/18 03:14:46;;;;;;;1.38;1.05;;;14.20;99.90;;;;;;5009977;28;20149;-70
2023/06/18 03:17:12;;;;;;;1.08;0.85;;;14.20;99.90;;;;;;5009775;28;20400;-70
2023/06/18 03:19:38;;;;;;;1.63;1.40;;;14.20;99.90;;;;;;5010438;28;20045;-70
2023/06/18 03:22:05;;;;;;;0.47;0.47;;;14.20;99.90;;;;;;5011507;28;20037;-69
2023/06/18 03:24:32;;;;;;;1.40;1.27;;;14.20;99.90;;;;;;5008747;28;20049;-69
2023/06/18 03:26:58;;;;;;;1.08;0.95;;;14.20;99.90;;;;;;4994905;28;20049;-69
2023/06/18 03:29:25;;;;;;;1.52;1.15;;;14.10;99.90;;;;;;5011845;28;20041;-69
2023/06/18 03:31:54;;;;;;;1.13;1.02;;;14.10;99.90;;;;;;5010330;28;20046;-69
2023/06/18 03:34:23;;;;;;;0.25;0.22;;;14.10;99.90;;;;;;5025618;28;20397;-69
2023/06/18 03:36:49;;;;;;;2.38;2.03;;;14.10;99.90;;;;;;5026642;28;20409;-70
2023/06/18 03:39:16;;;;;;;3.80;1.52;;;14.00;99.90;;;;;;5010280;28;20038;-69
2023/06/18 03:41:42;;;;;;;0.98;0.82;;;14.00;99.90;;;;;;5010914;28;20029;-70
2023/06/18 03:44:09;;;;;;;3.72;1.48;;;14.00;99.90;;;;;;5010245;28;20509;-69
2023/06/18 03:46:35;;;;;;;1.13;0.95;;;14.00;99.90;;;;;;5006399;28;20565;-69
2023/06/18 03:49:01;;;;;;;1.30;1.10;;;14.00;99.90;;;;;;5008093;28;20128;-70
2023/06/18 03:51:26;;;;;;;0.75;0.75;;;14.00;99.90;;;;;;5011975;28;20124;-70
2023/06/18 03:53:53;;;;;;;1.48;1.38;;;14.00;99.90;;;;;;5026022;28;20049;-70
2023/06/18 03:56:19;;;;;;;0.65;0.65;;;14.10;99.90;;;;;;5006249;28;20050;-69
2023/06/18 03:58:46;;;;;;;1.75;1.40;;;14.00;99.90;;;;;;5027794;28;20060;-70
2023/06/18 04:01:12;;;;;;;1.52;1.42;;;14.00;99.90;;;;;;5009635;28;20054;-69
2023/06/18 04:03:38;;;;;;;3.20;1.85;;;14.00;99.90;;;;;;5010132;28;20050;-70
2023/06/18 04:06:04;;;;;;;0.88;0.80;;;14.10;99.90;;;;;;5006777;28;20493;-69
2023/06/18 04:08:31;;;;;;;2.15;1.77;;;14.20;99.90;;;;;;5010352;28;20041;-69
2023/06/18 04:10:58;;;;;;;1.98;0.85;;;14.20;99.90;;;;;;5010300;28;20120;-69
2023/06/18 04:13:23;;;;;;;1.83;1.52;;;14.20;99.90;;;;;;5011150;28;20108;-69
2023/06/18 04:15:49;;;;;;;1.90;1.60;;;14.30;99.90;;;;;;5008860;28;20050;-69
2023/06/18 04:18:16;;;;;;;11.88;1.48;;;14.30;99.90;;;;;;5007666;28;20048;-70
2023/06/18 04:20:44;;;;;;;1.55;1.45;;;14.30;99.90;;;;;;5009744;28;20039;-70
2023/06/18 04:23:12;;;;;;;2.50;1.77;;;14.40;99.90;;;;;;5011274;28;20159;-70
2023/06/18 04:25:38;;;;;;;2.78;2.40;;;14.40;99.90;;;;;;5024483;28;20103;-69
2023/06/18 04:28:04;;;;;;;1.38;1.27;;;14.40;99.90;;;;;;5008316;28;20503;-69
2023/06/18 04:30:30;;;;;;;2.17;1.60;;;14.50;99.90;;;;;;5010147;28;20131;-69
2023/06/18 04:32:56;;;;;;;1.83;1.50;;;14.40;99.90;;;;;;4995510;28;20298;-69
2023/06/18 04:35:22;;;;;;;1.48;0.98;;;14.50;99.90;;;;;;5009262;28;20044;-69
2023/06/18 04:37:47;;;;;;;0.73;0.70;;;14.50;99.90;;;;;;5010763;28;20038;-70
2023/06/18 04:40:13;;;;;;;0.85;0.75;;;14.50;99.90;;;;;;5025717;28;20037;-70
2023/06/18 04:42:39;;;;;;;1.55;0.95;;;14.50;99.90;;;;;;5008587;28;20037;-70
2023/06/18 04:45:05;;;;;;;1.13;0.73;;;14.60;99.90;;;;;;5008055;28;20042;-70
2023/06/18 04:47:32;;;;;;;1.33;1.20;;;14.70;99.90;;;;;;5006722;28;20040;-70
2023/06/18 04:49:58;;;;;;;2.10;1.00;;;14.70;99.90;;;;;;5007779;28;20113;-70
2023/06/18 04:52:23;;;;;;;0.80;0.75;;;14.70;99.90;;;;;;4991730;28;20163;-69
2023/06/18 04:54:52;;;;;;;0.57;0.55;;;14.80;99.90;;;;;;4992367;28;20056;-69
2023/06/18 04:57:19;;;;;;;1.35;1.23;;;14.80;99.90;;;;;;5010084;28;20042;-69
2023/06/18 04:59:45;;;;;;;0.63;0.63;;;14.90;99.90;;;;;;5009765;28;20045;-69
2023/06/18 05:02:11;;;;;;;1.13;1.02;;;15.00;99.90;;;;;;5006538;28;20041;-69
2023/06/18 05:04:36;;;;;;;0.60;0.60;;;15.20;99.90;;;;;;5027119;28;20076;-70
2023/06/18 05:07:02;;;;;;;1.55;1.27;;;15.40;99.90;;;;;;5009223;28;20046;-70
2023/06/18 05:09:30;;;;;;;1.42;1.05;;;15.50;99.90;;;;;;5009612;28;20041;-69
2023/06/18 05:11:56;;;;;;;1.75;1.45;;;15.60;99.90;;;;;;5005763;28;20050;-69
2023/06/18 05:14:22;;;;;;;1.15;0.85;;;15.70;99.90;;;;;;5010147;28;20072;-68
2023/06/18 05:16:47;;;;;;;1.77;1.52;;;15.80;99.90;;;;;;5007640;28;20042;-69
2023/06/18 05:19:13;;;;;;;1.92;1.58;;;15.80;99.90;;;;;;5008087;28;20038;-68
2023/06/18 05:21:39;;;;;;;1.90;1.40;;;15.80;99.90;;;;;;5006988;28;20051;-70
2023/06/18 05:24:07;;;;;;;1.90;1.58;;;15.90;99.90;;;;;;5012591;28;20056;-69
2023/06/18 05:26:33;;;;;;;0.80;0.80;;;15.90;99.90;;;;;;5012838;28;20426;-70
2023/06/18 05:28:59;;;;;;;1.42;1.33;;;16.00;99.90;;;;;;5014068;28;20159;-69
2023/06/18 05:31:25;;;;;;;3.17;1.42;;;16.10;99.90;;;;;;5010745;28;20129;-69
2023/06/18 05:33:50;;;;;;;1.45;1.25;;;16.20;99.90;;;;;;5011917;28;20068;-69
2023/06/18 05:36:16;;;;;;;2.70;1.80;;;16.30;99.90;;;;;;5011725;28;20065;-70
2023/06/18 05:38:42;;;;;;;1.55;0.50;;;16.40;99.90;;;;;;5012560;28;20111;-70
2023/06/18 05:41:08;;;;;;;2.38;1.05;;;16.50;99.90;;;;;;5026511;28;20044;-70
2023/06/18 05:43:33;;;;;;;1.63;1.30;;;16.60;99.90;;;;;;5012656;28;20481;-71
2023/06/18 05:45:59;;;;;;;2.38;0.82;;;16.80;99.90;;;;;;5012481;28;20124;-70
2023/06/18 05:48:25;;;;;;;0.52;0.47;;;17.00;99.90;;;;;;5011719;28;20037;-70
2023/06/18 05:50:51;;;;;;;1.40;0.90;;;17.10;99.90;;;;;;5012506;28;20037;-71
2023/06/18 05:53:17;;;;;;;2.30;0.90;;;17.40;99.90;;;;;;5011681;28;20040;-71
2023/06/18 05:55:42;;;;;;;1.23;0.88;;;17.50;99.90;;;;;;5012065;28;20096;-71
2023/06/18 05:58:08;;;;;;;0.98;0.30;;;17.60;99.90;;;;;;5006525;28;20041;-71
2023/06/18 06:00:34;;;;;;;1.05;0.95;;;17.80;99.90;;;;;;5012977;28;20041;-71
2023/06/18 06:03:00;;;;;;;2.90;1.20;;;17.90;99.90;;;;;;5011987;28;20136;-70
2023/06/18 06:05:25;;;;;;;1.13;0.90;;;18.00;99.90;;;;;;5009152;28;20678;-71
2023/06/18 06:07:51;;;;;;;0.88;0.70;;;18.10;99.90;;;;;;5010964;28;20091;-71
2023/06/18 06:10:22;;;;;;;1.30;1.00;;;18.30;99.90;;;;;;5011402;28;20425;-71
2023/06/18 06:12:48;;;;;;;1.63;1.05;;;18.50;99.90;;;;;;5010196;28;20124;-71
2023/06/18 06:15:14;;;;;;;0.57;0.57;;;18.60;99.90;;;;;;5007532;28;20046;-70
2023/06/18 06:17:39;;;;;;;2.97;1.73;;;18.70;99.90;;;;;;5008197;28;20390;-71
2023/06/18 06:20:06;;;;;;;1.40;1.20;;;18.80;99.90;;;;;;5010874;28;20099;-71
2023/06/18 06:22:31;;;;;;;1.90;1.38;;;18.90;99.90;;;;;;4995275;28;20033;-71
2023/06/18 06:24:58;;;;;;;0.45;0.45;;;19.00;99.90;;;;;;4994759;28;20404;-70
2023/06/18 06:27:24;;;;;;;1.20;0.95;;;19.00;99.90;;;;;;5007605;28;20037;-71
2023/06/18 06:29:49;;;;;;;0.88;0.75;;;19.10;99.90;;;;;;4990595;28;20042;-71
2023/06/18 06:32:15;;;;;;;4.03;1.80;;;19.10;99.90;;;;;;5011363;28;20121;-70
2023/06/18 06:34:41;;;;;;;1.27;1.08;;;19.20;99.90;;;;;;5007932;28;20528;-71
2023/06/18 06:37:07;;;;;;;1.83;1.02;;;19.20;99.90;;;;;;4997115;28;20105;-70
2023/06/18 06:39:33;;;;;;;0.60;0.60;;;19.30;99.90;;;;;;5008628;28;20125;-70
2023/06/18 06:41:59;;;;;;;1.73;1.05;;;19.40;99.90;;;;;;5009339;28;20050;-71
2023/06/18 06:44:25;;;;;;;0.85;0.68;;;19.40;99.90;;;;;;5005169;28;21411;-71
2023/06/18 06:46:51;;;;;;;1.30;1.20;;;19.50;99.90;;;;;;5003927;28;20057;-70
2023/06/18 06:49:16;;;;;;;1.23;1.13;;;19.70;99.90;;;;;;5010347;28;20125;-70
2023/06/18 06:51:42;;;;;;;1.05;0.40;;;19.80;99.90;;;;;;5010181;28;20068;-71
2023/06/18 06:54:09;;;;;;;0.90;0.55;;;19.90;99.90;;;;;;5012374;28;20549;-71
2023/06/18 06:56:35;;;;;;;0.52;0.40;;;20.10;99.90;;;;;;5006495;28;20497;-71
2023/06/18 06:59:01;;;;;;;2.03;1.10;;;20.30;99.90;;;;;;5008538;28;20478;-71
2023/06/18 07:01:27;;;;;;;0.38;0.38;;;20.40;99.90;;;;;;5006313;28;20164;-71
2023/06/18 07:03:53;;;;;;;2.25;0.52;;;20.60;99.90;;;;;;5009941;28;20104;-71
2023/06/18 07:06:19;;;;;;;0.88;0.75;;;20.80;99.90;;;;;;5009791;28;20425;-71
2023/06/18 07:08:44;;;;;;;1.23;0.90;;;20.90;99.90;;;;;;5029264;28;20072;-71
2023/06/18 07:11:10;;;;;;;1.30;0.80;;;21.00;99.90;;;;;;5011617;28;20550;-70
2023/06/18 07:13:36;;;;;;;1.90;1.52;;;21.00;99.90;;;;;;5004544;28;20382;-71
2023/06/18 07:16:02;;;;;;;0.77;0.55;;;21.10;99.90;;;;;;5004422;28;20073;-71
2023/06/18 07:18:28;;;;;;;1.38;1.10;;;21.20;99.90;;;;;;4993075;28;20489;-71
2023/06/18 07:20:53;;;;;;;1.27;1.15;;;21.30;99.90;;;;;;5009089;28;20064;-72
2023/06/18 07:23:19;;;;;;;0.98;0.80;;;21.30;99.90;;;;;;4993730;28;20045;-72
2023/06/18 07:25:45;;;;;;;3.08;1.83;;;21.30;99.90;;;;;;5009996;28;20052;-72
2023/06/18 07:28:11;;;;;;;0.70;0.63;;;21.30;99.90;;;;;;5008159;28;20037;-72
2023/06/18 07:30:36;;;;;;;0.73;0.70;;;21.50;99.90;;;;;;5007636;28;20482;-71
2023/06/18 07:33:02;;;;;;;1.00;0.68;;;21.50;99.90;;;;;;5007258;28;20045;-72
2023/06/18 07:35:28;;;;;;;0.98;0.77;;;21.70;99.90;;;;;;5008975;28;20084;-71
2023/06/18 07:37:54;;;;;;;1.40;1.00;;;21.80;99.90;;;;;;5026737;28;20072;-71
2023/06/18 07:40:20;;;;;;;1.30;0.95;;;21.90;99.90;;;;;;5007465;28;20064;-71
2023/06/18 07:42:45;;;;;;;4.30;1.77;;;21.90;99.90;;;;;;5007209;28;20470;-71
2023/06/18 07:45:12;;;;;;;1.63;0.90;;;22.10;99.90;;;;;;5005835;28;20044;-71
2023/06/18 07:47:37;;;;;;;1.23;1.13;;;22.20;99.90;;;;;;5024042;28;20037;-71
2023/06/18 07:50:04;;;;;;;0.95;0.85;;;22.40;99.90;;;;;;5005656;28;20349;-71
2023/06/18 07:52:30;;;;;;;1.08;0.77;;;22.50;99.90;;;;;;5006748;28;20049;-71
2023/06/18 07:54:56;;;;;;;0.57;0.43;;;22.60;99.90;;;;;;4991683;28;20038;-71
2023/06/18 07:57:21;;;;;;;1.58;1.05;;;22.70;99.90;;;;;;5010894;28;20042;-71
2023/06/18 07:59:47;;;;;;;0.50;0.47;;;22.90;99.90;;;;;;4995133;28;20041;-71
2023/06/18 08:02:13;;;;;;;1.48;0.80;;;23.10;99.90;;;;;;5008216;28;20046;-71
2023/06/18 08:04:39;;;;;;;1.08;0.73;;;23.20;99.90;;;;;;5010451;28;20055;-72
2023/06/18 08:07:05;;;;;;;0.57;0.40;;;23.30;99.90;;;;;;5026539;28;20041;-72
2023/06/18 08:09:31;;;;;;;0.80;0.57;;;23.40;99.90;;;;;;5009571;28;20243;-72
2023/06/18 08:11:57;;;;;;;0.30;0.28;;;23.60;99.90;;;;;;5011777;28;20041;-72
2023/06/18 08:14:23;;;;;;;1.13;0.75;;;23.80;99.90;;;;;;4993657;28;20484;-72
2023/06/18 08:16:49;;;;;;;0.30;0.30;;;23.90;99.90;;;;;;5010586;28;20049;-72
2023/06/18 08:19:15;;;;;;;0.95;0.75;;;24.10;99.90;;;;;;5007076;28;20073;-72
2023/06/18 08:21:41;;;;;;;0.73;0.52;;;24.30;99.90;;;;;;5012617;28;20122;-72
2023/06/18 08:24:07;;;;;;;0.28;0.10;;;24.40;99.90;;;;;;4993526;28;20369;-72
2023/06/18 08:26:33;;;;;;;0.60;0.40;;;24.60;99.90;;;;;;5010837;28;20048;-72
2023/06/18 08:28:59;;;;;;;1.05;0.80;;;24.70;99.90;;;;;;5011926;28;20456;-72
2023/06/18 08:31:25;;;;;;;1.45;0.68;;;24.90;99.90;;;;;;5012239;28;20048;-72
2023/06/18 08:33:51;;;;;;;0.40;0.20;;;25.00;99.90;;;;;;4992606;28;20120;-73
2023/06/18 08:36:20;;;;;;;0.57;0.43;;;25.10;99.90;;;;;;5007346;28;20049;-72
2023/06/18 08:38:47;;;;;;;0.40;0.40;;;25.30;99.90;;;;;;5011681;28;20037;-72
2023/06/18 08:41:14;;;;;;;1.35;0.57;;;25.40;99.90;;;;;;5010846;28;20053;-72
2023/06/18 08:43:40;;;;;;;0.50;0.30;;;25.50;99.90;;;;;;5006063;28;20100;-77
2023/06/18 08:46:13;;;;;;;0.75;0.55;;;25.60;99.90;;;;;;5009244;28;20478;-77
2023/06/18 08:48:54;;;;;;;1.13;0.70;;;25.80;99.90;;;;;;5020144;28;20045;-77
2023/06/18 08:51:21;;;;;;;1.55;1.10;;;26.00;99.40;;;;;;5009456;28;20103;-77
2023/06/18 08:53:55;;;;;;;0.43;0.40;;;26.10;99.90;;;;;;5008999;28;20488;-77
2023/06/18 08:56:23;;;;;;;0.52;0.22;;;26.40;99.90;;;;;;5011202;28;20046;-77
2023/06/18 08:58:50;;;;;;;1.05;0.43;;;26.60;99.90;;;;;;5011574;28;20406;-77
2023/06/18 09:01:19;;;;;;;1.00;0.57;;;26.80;99.90;;;;;;5010756;28;20140;-78
2023/06/18 09:03:45;;;;;;;0.20;0.20;;;26.80;93.90;;;;;;4996110;28;20405;-78
2023/06/18 09:06:12;;;;;;;0.82;0.40;;;26.80;93.30;;;;;;5010059;28;20038;-75
2023/06/18 09:08:39;;;;;;;0.28;0.20;;;27.00;91.00;;;;;;5002371;28;20053;-74
2023/06/18 09:11:06;;;;;;;0.82;0.60;;;27.00;92.90;;;;;;5008798;28;20033;-75
2023/06/18 09:13:33;;;;;;;0.50;0.43;;;27.10;90.60;;;;;;5005901;28;20513;-73
2023/06/18 09:16:00;;;;;;;0.60;0.47;;;27.30;86.60;;;;;;5013351;28;20133;-73
2023/06/18 09:18:26;;;;;;;0.77;0.45;;;27.30;84.10;;;;;;5009760;28;20211;-74
2023/06/18 09:20:55;;;;;;;0.60;0.30;;;27.40;82.00;;;;;;5010821;28;20541;-74
2023/06/18 09:23:21;;;;;;;0.45;0.40;;;27.50;80.70;;;;;;5010244;28;20033;-73
2023/06/18 09:25:54;;;;;;;1.55;0.55;;;27.70;74.50;;;;;;5010526;28;20517;-72
2023/06/18 09:28:21;;;;;;;0.25;0.20;;;27.80;71.60;;;;;;5011112;28;20065;-73
2023/06/18 09:31:00;;;;;;;0.52;0.40;;;28.00;75.70;;;;;;5012733;28;20053;-73
2023/06/18 09:33:30;;;;;;;1.42;0.30;;;28.10;70.90;;;;;;5010563;28;20050;-73
2023/06/18 09:36:07;;;;;;;1.10;0.10;;;28.10;73.00;;;;;;5009723;28;20053;-73
2023/06/18 09:38:40;;;;;;;0.10;0.10;;;28.10;78.00;;;;;;4995667;28;20048;-72
2023/06/18 09:41:11;;;;;;;;;;;28.20;80.50;;;;;;5009709;28;20140;-72
2023/06/18 09:43:39;;;;;;;0.43;0.20;;;28.40;73.90;;;;;;5007198;28;20364;-73
2023/06/18 09:46:07;;;;;;;0.60;0.40;;;28.60;73.80;;;;;;5004416;28;20042;-73
2023/06/18 09:48:37;;;;;;;0.22;0.17;;;28.60;73.90;;;;;;5009558;28;20413;-72
2023/06/18 09:51:04;;;;;;;0.28;0.28;;;28.70;76.50;;;;;;5012087;28;20132;-72
2023/06/18 09:53:29;;;;;;;0.77;0.30;;;28.80;76.70;;;;;;5014201;28;20033;-72
2023/06/18 09:56:14;;;;;;;1.02;0.40;;;28.90;77.90;;;;;;4996568;28;20041;-72
2023/06/18 09:58:45;;;;;;;0.32;0.30;;;29.00;73.40;;;;;;5009912;28;20359;-73
2023/06/18 10:01:12;;;;;;;0.32;0.30;;;29.10;72.40;;;;;;5007868;28;20038;-73
2023/06/18 10:03:39;;;;;;;0.10;0.10;;;29.00;71.00;;;;;;5007000;28;20050;-73
2023/06/18 10:06:23;;;;;;;0.38;0.20;;;29.00;70.30;;;;;;5008479;28;20185;-72
2023/06/18 10:08:50;;;;;;;0.52;0.38;;;28.90;70.20;;;;;;5003603;28;20042;-72
2023/06/18 10:11:17;;;;;;;0.17;0.17;;;28.90;64.40;;;;;;5006541;28;20103;-72
2023/06/18 10:13:48;;;;;;;0.20;0.15;;;28.90;69.10;;;;;;5008367;28;20084;-72
2023/06/18 10:16:16;;;;;;;0.57;0.43;;;28.90;70.10;;;;;;5009555;28;20049;-71
2023/06/18 10:19:05;;;;;;;0.30;0.30;;;29.00;69.30;;;;;;5004785;28;20076;-72
2023/06/18 10:21:34;;;;;;;0.50;0.25;;;29.10;65.50;;;;;;4960827;28;20042;-72
2023/06/18 10:24:27;;;;;;;0.50;0.30;;;29.10;66.20;;;;;;5008597;28;20125;-72
2023/06/18 10:26:55;;;;;;;0.32;0.25;;;29.20;63.20;;;;;;5005155;28;20050;-72
2023/06/18 10:29:22;;;;;;;0.40;0.30;;;29.10;66.20;;;;;;4992607;28;20124;-71
2023/06/18 10:31:50;;;;;;;0.35;0.22;;;29.00;65.00;;;;;;5008806;28;20042;-71
2023/06/18 10:34:17;;;;;;;0.60;0.32;;;28.70;65.70;;;;;;4991271;28;20050;-72
2023/06/18 10:36:44;;;;;;;0.63;0.20;;;28.50;62.70;;;;;;5008425;28;20410;-73
2023/06/18 10:39:10;;;;;;;0.52;0.45;;;28.20;64.80;;;;;;5006843;28;20042;-72
2023/06/18 10:41:36;;;;;;;0.73;0.30;;;28.00;59.60;;;;;;5007698;28;20402;-73
2023/06/18 10:44:02;;;;;;;0.32;0.30;;;27.90;64.70;;;;;;5005294;28;20045;-72
2023/06/18 10:46:33;;;;;;;0.80;0.30;;;27.80;62.80;;;;;;5008141;28;20363;-72
2023/06/18 10:49:16;;;;;;;0.40;0.15;;;27.70;65.40;;;;;;5007689;28;20115;-72
2023/06/18 10:51:51;;;;;;;0.10;0.00;;;27.60;65.20;;;;;;5009292;28;20085;-72
2023/06/18 10:54:29;;;;;;;0.52;0.20;;;27.60;65.50;;;;;;5007766;28;20038;-73
2023/06/18 10:56:56;;;;;;;0.57;0.30;;;27.60;63.60;;;;;;5009272;28;20054;-73
2023/06/18 10:59:45;;;;;;;0.20;0.10;;;27.60;64.30;;;;;;5009387;28;20041;-73
2023/06/18 11:02:12;;;;;;;0.17;0.10;;;27.60;64.90;;;;;;5008035;28;20480;-72
2023/06/18 11:04:38;;;;;;;1.42;0.63;;;27.60;66.10;;;;;;4992344;28;20057;-72
2023/06/18 11:07:31;;;;;;;1.63;0.93;;;27.60;66.50;;;;;;5005661;28;20050;-72
2023/06/18 11:10:04;;;;;;;0.25;0.25;;;27.60;67.30;;;;;;5003232;28;20423;-72
2023/06/18 11:12:33;;;;;;;0.30;0.10;;;27.60;66.50;;;;;;5005523;28;20490;-72
2023/06/18 11:15:18;;;;;;;0.25;0.15;;;27.60;63.10;;;;;;5008563;28;20046;-72
2023/06/18 11:17:44;;;;;;;0.10;0.10;;;27.60;66.10;;;;;;5007907;28;20061;-72
2023/06/18 11:20:12;;;;;;;0.35;0.10;;;27.60;67.50;;;;;;5008291;28;20445;-72
2023/06/18 11:22:39;;;;;;;0.15;0.10;;;27.60;66.90;;;;;;4991740;28;20088;-72
2023/06/18 11:25:07;;;;;;;0.40;0.20;;;27.60;66.10;;;;;;5004767;28;20073;-72
2023/06/18 11:27:33;;;;;;;0.70;0.40;;;27.70;65.60;;;;;;5006134;28;20634;-71
2023/06/18 11:29:59;;;;;;;0.15;0.10;;;27.70;65.30;;;;;;5008302;28;20050;-72
2023/06/18 11:32:26;;;;;;;0.30;0.10;;;27.90;63.20;;;;;;5008966;28;20066;-72
2023/06/18 11:34:54;;;;;;;0.28;0.17;;;28.00;64.10;;;;;;5004569;28;20078;-72
2023/06/18 11:37:20;;;;;;;0.57;0.25;;;28.20;65.50;;;;;;5002607;28;20565;-72
2023/06/18 11:39:47;;;;;;;2.80;0.65;;;28.30;66.80;;;;;;5002099;28;20045;-72
2023/06/18 11:42:20;;;;;;;0.15;0.10;;;28.50;62.60;;;;;;5003237;28;20037;-72
2023/06/18 11:44:50;;;;;;;0.47;0.32;;;28.80;59.10;;;;;;5008455;28;20148;-72
2023/06/18 11:47:16;;;;;;;0.80;0.30;;;29.00;62.00;;;;;;5007926;28;20224;-70
2023/06/18 11:49:46;;;;;;;0.32;0.20;;;29.10;61.00;;;;;;4989969;28;20038;-70
2023/06/18 11:52:17;;;;;;;0.40;0.25;;;29.20;61.00;;;;;;5002346;28;20038;-69
2023/06/18 11:54:44;;;;;;;0.10;0.10;;;29.30;62.20;;;;;;5004309;28;20501;-71
2023/06/18 11:57:15;;;;;;;0.75;0.40;;;29.30;58.30;;;;;;5007047;28;20073;-70
2023/06/18 11:59:45;;;;;;;0.82;0.63;;;29.30;58.80;;;;;;5006478;28;20045;-70
2023/06/18 12:02:18;;;;;;;1.13;0.30;;;29.40;56.50;;;;;;5003881;28;20374;-70
2023/06/18 12:04:45;;;;;;;0.32;0.30;;;29.30;56.90;;;;;;5005320;28;20057;-78
2023/06/18 12:07:21;;;;;;;0.20;0.20;;;29.50;58.30;;;;;;5006326;28;20494;-78
2023/06/18 12:09:48;;;;;;;0.20;0.20;;;29.70;57.20;;;;;;5000908;28;20066;-81
2023/06/18 12:12:26;;;;;;;0.20;0.10;;;29.80;59.80;;;;;;4986579;28;20030;-79
2023/06/18 12:15:24;;;;;;;0.50;0.30;;;29.90;58.10;;;;;;5004098;28;20050;-76
2023/06/18 12:17:58;;;;;;;0.60;0.30;;;30.00;57.70;;;;;;5006292;28;20470;-79
2023/06/18 12:20:28;;;;;;;0.30;0.20;;;30.20;57.50;;;;;;4994568;28;20098;-78
2023/06/18 12:22:59;;;;;;;0.55;0.50;;;30.50;58.40;;;;;;5005798;28;20552;-78
2023/06/18 12:25:27;;;;;;;0.20;0.10;;;30.70;55.90;;;;;;5001921;28;20044;-78
2023/06/18 12:27:59;;;;;;;2.22;0.52;;;30.90;52.30;;;;;;5006139;28;20049;-80
2023/06/18 12:30:35;;;;;;;0.52;0.25;;;31.00;56.20;;;;;;5004971;28;20041;-80
2023/06/18 12:33:02;;;;;;;0.65;0.52;;;31.20;52.30;;;;;;5009023;28;20486;-79
2023/06/18 12:35:30;;;;;;;0.25;0.20;;;31.40;53.60;;;;;;4993840;28;20034;-83
2023/06/18 12:38:00;;;;;;;0.10;0.08;;;31.50;54.40;;;;;;5013097;28;20044;-80
2023/06/18 12:40:26;;;;;;;0.17;0.15;;;31.50;51.40;;;;;;5010496;28;20038;-79
2023/06/18 12:42:52;;;;;;;0.75;0.60;;;31.20;52.50;;;;;;4997254;28;20176;-77
2023/06/18 12:45:26;;;;;;;0.55;0.30;;;30.90;53.10;;;;;;4992992;28;20116;-78
2023/06/18 12:47:52;;;;;;;0.40;0.30;;;30.80;54.50;;;;;;5007300;28;20035;-78
2023/06/18 12:50:24;;;;;;;0.38;0.20;;;30.60;54.60;;;;;;5007951;28;20041;-78
2023/06/18 12:52:50;;;;;;;0.38;0.30;;;30.60;54.40;;;;;;5010662;28;20049;-77